Flight Track Log - Related Links

Times and Time Zones

All times are in EDT time to prevent confusion due to time zone crossing. See the UAL4295 flight status page for this flight to view local times or setup timezone preferences in your user account.

Time Position Orientation Groundspeed Altitude Reporting Facility
EDT Latitude Longitude Course Direction KTS MPH feet Rate Location/Type
Mon 08:34:31 PM 40.7333 -74.1333 294° West 171 197 2,000  Level New York TRACON
Mon 08:35:31 PM 40.7833 -74.1167 14° North 250 288 3,600 2,000 Climbing New York TRACON
Mon 08:36:31 PM 40.8333 -74.1833 315° West 267 307 6,000 2,550 Climbing New York TRACON
Mon 08:37:00 PM 40.7485 -74.6829 277° West  Level FlightAware Approximate
Mon 08:37:31 PM 40.8833 -74.2500 315° West 271 312 8,700  Level New York TRACON
Mon 08:38:00 PM 40.7590 -74.8168 276° West  Level FlightAware Approximate
Mon 08:38:31 PM 40.9000 -74.3333 285° West 269 310 10,600  Level New York TRACON
Mon 08:39:00 PM 40.7771 -74.9481 294° West  Level FlightAware Approximate
Mon 08:39:31 PM 40.8833 -74.4500 259° West 307 353 11,500  Level New York TRACON
Mon 08:41:40 PM 40.8503 -74.7050 260° West 332 382 14,300 1,245 Climbing New York Center
Mon 08:42:39 PM 40.8381 -74.8167 262° West 340 391 15,400 1,150 Climbing New York Center
Mon 08:43:40 PM 40.8228 -74.9556 262° West 350 403 16,600 1,240 Climbing New York Center
Mon 08:44:40 PM 40.8078 -75.0864 261° West 350 403 17,900 850 Climbing New York Center
Mon 08:45:40 PM 40.7925 -75.2142 261° West 355 409 18,300 744 Climbing New York Center
Mon 08:46:41 PM 40.7708 -75.3444 258° West 360 414 19,400 1,109 Climbing New York Center
Mon 08:47:39 PM 40.7347 -75.4678 249° West 370 426 20,500 1,008 Climbing New York Center
Mon 08:48:40 PM 40.6881 -75.5933 244° Southwest 376 433 21,400 1,140 Climbing New York Center
Mon 08:49:40 PM 40.6414 -75.7158 243° Southwest 381 438 22,800 1,339 Climbing New York Center
Mon 08:50:41 PM 40.5967 -75.8356 244° Southwest 374 430 24,100 1,289 Climbing New York Center
Mon 08:51:41 PM 40.5478 -75.9578 242° Southwest 374 430 25,400 1,627 Climbing New York Center
Mon 08:52:39 PM 40.5053 -76.0692 243° Southwest 369 425 27,300 1,311 Climbing New York Center
Mon 08:53:40 PM 40.4628 -76.1778 243° Southwest 354 407 28,000 1,041 Climbing New York Center
Mon 08:54:40 PM 40.4244 -76.2864 245° Southwest 342 394 29,400 1,488 Climbing New York Center
Mon 08:55:41 PM 40.3842 -76.3869 242° Southwest 330 380 31,000 1,412 Climbing New York Center
Mon 08:56:39 PM 40.3483 -76.4819 244° Southwest 316 364 32,200 1,100 Climbing New York Center
Mon 08:57:41 PM 40.3083 -76.5794 242° Southwest 310 357 33,200 1,000 Climbing New York Center
Mon 08:58:39 PM 40.2681 -76.6767 242° Southwest 305 351 34,200 1,008 Climbing New York Center
Mon 08:59:40 PM 40.2297 -76.7714 242° Southwest 300 345 35,200 885 Climbing New York Center
Mon 09:00:41 PM 40.1917 -76.8658 242° Southwest 295 339 36,000 403 Climbing New York Center
Mon 09:01:39 PM 40.1531 -76.9658 243° Southwest 305 351 36,000  Level New York Center
Mon 09:02:40 PM 40.1169 -77.0550 242° Southwest 305 351 36,000  Level New York Center
Mon 09:03:41 PM 40.0717 -77.1647 242° Southwest 325 374 36,000  Level New York Center
Mon 09:05:13 PM 40.0000 -77.3417 242° Southwest 360 414 36,000  Level Cleveland Center
Mon 09:06:13 PM 39.9597 -77.4628 247° West 360 414 36,000  Level Cleveland Center
Mon 09:07:13 PM 39.9614 -77.6036 271° West 365 420 36,000  Level Cleveland Center
Mon 09:08:13 PM 39.9650 -77.7469 272° West 382 440 36,000  Level Cleveland Center
Mon 09:09:13 PM 39.9706 -77.8875 273° West 391 450 36,000  Level Cleveland Center
Mon 09:10:13 PM 39.9742 -78.0447 272° West 391 450 36,000  Level Cleveland Center
Mon 09:11:13 PM 39.9831 -78.1661 275° West 391 450 36,000  Level Cleveland Center
Mon 09:12:13 PM 39.9864 -78.3233 272° West 391 450 36,000  Level Cleveland Center
Mon 09:13:13 PM 39.9911 -78.4614 273° West 391 450 36,000  Level Cleveland Center
Mon 09:14:13 PM 39.9958 -78.6022 273° West 386 444 36,000  Level Cleveland Center
Mon 09:15:13 PM 40.0003 -78.7428 272° West 386 444 36,000  Level Cleveland Center
Mon 09:16:13 PM 40.0044 -78.8836 272° West 386 444 36,000  Level Cleveland Center
Mon 09:17:13 PM 40.0128 -79.0272 274° West 386 444 36,000  Level Cleveland Center
Mon 09:18:13 PM 40.0167 -79.1681 272° West 391 450 36,000  Level Cleveland Center
Mon 09:19:13 PM 40.0206 -79.3089 272° West 391 450 36,000  Level Cleveland Center
Mon 09:20:13 PM 40.0261 -79.4553 273° West 397 457 36,000  Level Cleveland Center
Mon 09:21:13 PM 40.0275 -79.6044 271° West 407 468 36,000  Level Cleveland Center
Mon 09:22:13 PM 40.0328 -79.7506 273° West 407 468 36,000  Level Cleveland Center
Mon 09:23:13 PM 40.0358 -79.8944 272° West 407 468 36,000  Level Cleveland Center
Mon 09:24:13 PM 40.0389 -80.0408 272° West 407 468 36,000  Level Cleveland Center
Mon 09:25:13 PM 40.0436 -80.1872 272° West 401 461 36,000  Level Cleveland Center
Mon 09:26:13 PM 40.0461 -80.3336 271° West 401 461 36,000  Level Cleveland Center
Mon 09:27:13 PM 40.0483 -80.4800 271° West 401 461 36,000  Level Cleveland Center
Mon 09:28:13 PM 40.0483 -80.6264 270° West 401 461 36,000  Level Cleveland Center
Mon 09:29:13 PM 40.0525 -80.7731 272° West 401 461 36,000  Level Cleveland Center
Mon 09:31:17 PM 40.0525 -81.0644 270° West 408 470 36,000  Level Indianapolis Center
Mon 09:32:19 PM 40.0544 -81.2131 271° West 406 467 36,000  Level Indianapolis Center
Mon 09:33:20 PM 40.0556 -81.3636 271° West 410 472 36,000  Level Indianapolis Center
Mon 09:34:21 PM 40.0575 -81.5125 271° West 407 468 36,000  Level Indianapolis Center
Mon 09:35:22 PM 40.0592 -81.6639 271° West 412 474 36,000  Level Indianapolis Center
Mon 09:36:24 PM 40.0592 -81.8206 270° West 407 468 36,000  Level Indianapolis Center
Mon 09:37:25 PM 40.0608 -81.9700 271° West 408 470 36,000  Level Indianapolis Center
Mon 09:38:26 PM 40.0617 -82.1194 270° West 410 472 36,000  Level Indianapolis Center
Mon 09:39:27 PM 40.0614 -82.2689 270° West 408 470 36,000  Level Indianapolis Center
Mon 09:40:29 PM 40.0617 -82.4164 270° West 406 467 36,000  Level Indianapolis Center
Mon 09:41:30 PM 40.0619 -82.5908 270° West 408 470 36,000  Level Indianapolis Center
Mon 09:42:31 PM 40.0608 -82.7389 269° West 408 470 36,000  Level Indianapolis Center
Mon 09:43:32 PM 40.0611 -82.8867 270° West 405 466 36,000  Level Indianapolis Center
Mon 09:44:34 PM 40.0603 -83.0336 270° West 403 464 36,000  Level Indianapolis Center
Mon 09:45:35 PM 40.0603 -83.1756 270° West 392 451 36,000  Level Indianapolis Center
Mon 09:46:36 PM 40.0583 -83.3181 269° West 391 450 36,000  Level Indianapolis Center
Mon 09:47:37 PM 40.0578 -83.4606 270° West 394 453 36,000  Level Indianapolis Center
Mon 09:48:38 PM 40.0567 -83.6028 269° West 394 453 36,000 -49 Level Indianapolis Center
Mon 09:49:40 PM 40.0553 -83.7461 269° West 397 457 35,900  Descending Indianapolis Center
Mon 09:50:41 PM 40.0533 -83.8906 269° West 398 458 36,000 49 Climbing Indianapolis Center
Mon 09:51:42 PM 40.0514 -84.0575 269° West 396 456 36,000  Level Indianapolis Center
Mon 09:52:43 PM 40.0497 -84.2044 269° West 402 463 36,000  Level Indianapolis Center
Mon 09:53:44 PM 40.0475 -84.3536 269° West 408 470 36,000  Level Indianapolis Center
Mon 09:54:46 PM 40.0453 -84.5033 269° West 410 472 36,000  Level Indianapolis Center
Mon 09:55:47 PM 40.0408 -84.6472 268° West 397 457 36,000  Level Indianapolis Center
Mon 09:56:48 PM 40.0392 -84.7878 269° West 386 444 36,000  Level Indianapolis Center
Mon 09:57:49 PM 40.0364 -84.9292 269° West 387 445 36,000  Level Indianapolis Center
Mon 09:58:50 PM 40.0347 -85.0722 269° West 391 450 36,000  Level Indianapolis Center
Mon 09:59:51 PM 40.0292 -85.2147 267° West 392 451 36,000  Level Indianapolis Center
Mon 10:01:54 PM 40.0228 -85.4981 268° West 391 450 36,000  Level Chicago Center
Mon 10:02:56 PM 40.0189 -85.6383 268° West 389 448 36,000  Level Chicago Center
Mon 10:04:08 PM 40.0128 -85.8081 267° West 390 449 36,000  Level Indianapolis Center
Mon 10:05:09 PM 40.0086 -85.9608 268° West 394 453 36,000  Level Indianapolis Center
Mon 10:06:10 PM 40.0047 -86.1075 268° West 402 463 36,000  Level Indianapolis Center
Mon 10:07:02 PM 40.0011 -86.2431 268° West 398 458 36,000  Level Chicago Center
Mon 10:08:04 PM 39.9967 -86.3847 268° West 393 452 36,000  Level Chicago Center
Mon 10:09:05 PM 39.9908 -86.5278 267° West 394 453 36,000  Level Chicago Center
Mon 10:10:14 PM 39.9858 -86.6833 268° West 402 463 36,000  Level Indianapolis Center
Mon 10:11:15 PM 39.9806 -86.8269 267° West 398 458 36,000  Level Indianapolis Center
Mon 10:12:16 PM 39.9756 -86.9714 267° West 397 457 36,000  Level Indianapolis Center
Mon 10:13:17 PM 39.9681 -87.1464 267° West 402 463 36,000  Level Indianapolis Center
Mon 10:14:18 PM 39.9622 -87.2875 267° West 394 453 36,000  Level Indianapolis Center
Mon 10:15:19 PM 39.9561 -87.4289 267° West 392 451 36,000  Level Indianapolis Center
Mon 10:16:20 PM 39.9500 -87.5744 267° West 399 459 36,000  Level Indianapolis Center
Mon 10:17:21 PM 39.9433 -87.7175 267° West 398 458 36,000  Level Indianapolis Center
Mon 10:18:22 PM 39.9378 -87.8528 267° West 383 441 36,000  Level Indianapolis Center
Mon 10:19:21 PM 39.9336 -87.9747 267° West 371 427 36,000  Level Chicago Center
Mon 10:20:23 PM 39.9267 -88.1125 266° West 376 433 36,000  Level Chicago Center
Mon 10:21:24 PM 39.9203 -88.2494 267° West 379 436 36,000  Level Chicago Center
Mon 10:22:22 PM 39.9117 -88.3881 265° West 380 437 36,000  Level Kansas City Center
Mon 10:23:25 PM 39.9042 -88.5283 266° West 384 442 36,000 -49 Level Kansas City Center
Mon 10:24:24 PM 39.8978 -88.6667 267° West 385 443 35,900 -500 Descending Kansas City Center
Mon 10:25:25 PM 39.8897 -88.8047 266° West 384 442 35,000 -927 Descending Kansas City Center
Mon 10:26:27 PM 39.8822 -88.9392 266° West 376 433 34,000 -492 Descending Kansas City Center
Mon 10:27:27 PM 39.8756 -89.0739 266° West 374 430 34,000  Level Kansas City Center
Mon 10:28:27 PM 39.8650 -89.2394 265° West 380 437 34,000  Level Kansas City Center
Mon 10:29:30 PM 39.8578 -89.3814 266° West 388 447 34,000  Level Kansas City Center
Mon 10:30:31 PM 39.8492 -89.5264 266° West 396 456 34,000  Level Kansas City Center
Mon 10:31:32 PM 39.8392 -89.6697 265° West 397 457 34,000  Level Kansas City Center
Mon 10:32:32 PM 39.8406 -89.8072 271° West 386 444 34,000  Level Kansas City Center
Mon 10:33:33 PM 39.8422 -89.9483 271° West 386 444 34,000  Level Kansas City Center
Mon 10:34:34 PM 39.8425 -90.0897 270° West 388 447 34,000  Level Kansas City Center
Mon 10:35:37 PM 39.8436 -90.2308 271° West 390 449 34,000  Level Kansas City Center
Mon 10:36:38 PM 39.8453 -90.3711 271° West 388 447 34,000  Level Kansas City Center
Mon 10:37:39 PM 39.8458 -90.5133 270° West 390 449 34,000  Level Kansas City Center
Mon 10:38:38 PM 39.8478 -90.6547 271° West 390 449 34,000  Level Kansas City Center
Mon 10:39:39 PM 39.8475 -90.7947 270° West 389 448 34,000  Level Kansas City Center
Mon 10:40:42 PM 39.8481 -90.9347 270° West 387 445 34,000  Level Kansas City Center
Mon 10:41:44 PM 39.8483 -91.0883 270° West 386 444 34,000  Level Kansas City Center
Mon 10:42:44 PM 39.8483 -91.2261 270° West 384 442 34,000  Level Kansas City Center
Mon 10:43:45 PM 39.8428 -91.3631 267° West 383 441 34,000  Level Kansas City Center
Mon 10:44:44 PM 39.8306 -91.5017 263° West 385 443 34,000  Level Kansas City Center
Mon 10:45:48 PM 39.8208 -91.6386 265° West 384 442 34,000  Level Kansas City Center
Mon 10:46:46 PM 39.8100 -91.7767 264° West 387 445 34,000  Level Kansas City Center
Mon 10:47:47 PM 39.8011 -91.9111 265° West 380 437 34,000  Level Kansas City Center
Mon 10:48:51 PM 39.7869 -92.0750 264° West 381 438 34,000  Level Kansas City Center
Mon 10:49:50 PM 39.7781 -92.2042 265° West 368 423 34,000  Level Kansas City Center
Mon 10:50:52 PM 39.7675 -92.3289 264° West 354 407 34,000  Level Kansas City Center
Mon 10:51:53 PM 39.7567 -92.4561 264° West 353 406 34,000  Level Kansas City Center
Mon 10:52:54 PM 39.7464 -92.5817 264° West 354 407 34,000  Level Kansas City Center
Mon 10:53:56 PM 39.7353 -92.7097 264° West 355 409 34,000 -197 Level Kansas City Center
Mon 10:54:56 PM 39.7244 -92.8408 264° West 362 417 33,600 -1,210 Descending Kansas City Center
Mon 10:55:55 PM 39.7125 -92.9658 263° West 356 410 31,600 -2,000 Descending Kansas City Center
Mon 10:56:56 PM 39.7017 -93.0892 264° West 347 399 29,600 -1,902 Descending Kansas City Center
Mon 10:57:58 PM 39.6914 -93.2186 264° West 357 411 27,700 -1,902 Descending Kansas City Center
Mon 10:58:59 PM 39.6781 -93.3511 263° West 368 423 25,700 -2,066 Descending Kansas City Center
Mon 11:00:00 PM 39.6636 -93.5067 263° West 367 422 23,500 -2,049 Descending Kansas City Center
Mon 11:01:02 PM 39.6522 -93.6314 263° West 352 405 21,500 -2,231 Descending Kansas City Center
Mon 11:02:01 PM 39.6419 -93.7481 264° West 323 372 19,000 -2,361 Descending Kansas City Center
Mon 11:03:04 PM 39.6331 -93.8542 264° West 311 358 16,700 -2,274 Descending Kansas City Center
Mon 11:04:05 PM 39.5919 -93.9506 241° Southwest 322 371 14,300 -2,213 Descending Kansas City Center
Mon 11:05:06 PM 39.5372 -94.0589 237° Southwest 322 371 12,200 -1,388 Descending Kansas City Center
Mon 11:06:06 PM 39.4911 -94.1497 237° Southwest 316 364 11,500 -1,050 Descending Kansas City Center
Mon 11:07:06 PM 39.4447 -94.2378 236° Southwest 310 357 10,100 -829 Descending Kansas City Center
Mon 11:08:09 PM 39.3992 -94.3297 237° Southwest 264 304 9,800 -581 Descending Kansas City Center
Mon 11:09:10 PM 39.3653 -94.3989 238° Southwest 240 276 8,900 -984 Descending Kansas City Center
Mon 11:10:11 PM 39.3281 -94.4706 236° Southwest 249 287 7,800 -1,160 Descending Kansas City Center
Mon 11:11:09 PM 39.2886 -94.5486 237° Southwest 234 269 6,600 -885 Descending Kansas City Center
Mon 11:12:13 PM 39.2439 -94.6028 223° Southwest 228 262 6,000 -774 Descending Kansas City Center
Mon 11:13:13 PM 39.2039 -94.6542 225° Southwest 211 243 5,000 -1,000 Descending Kansas City Center

Login

Don't have an account? Register now (free) for customized features, flight alerts, and more!